Terminal Aerodrome Forecast
Issued by NWS Louisville, KY

Home | Current Version | Previous Version | Text Only | Print | Product List | Glossary On
Versions: 1 2 3 4 5 6 7 8 9 10 11 12 13 14
000
FTUS43 KLMK 101100
TAFSDF
TAF
KSDF 101135Z 1012/1118 03003KT P6SM SCT250
     FM101500 02008KT P6SM FEW050 SCT250
     FM110300 05003KT P6SM SCT250=

USA.gov is the U.S. government's official web portal to all federal, state and local government web resources and services.